sensor_id;sensor_type;location;lat;lon;timestamp;P1;durP1;ratioP1;P2;durP2;ratioP2
8572;SDS011;4324;42.012;24.872;2023-05-29T00:02:09;6.70;;;4.10;;
8572;SDS011;4324;42.012;24.872;2023-05-29T00:04:36;5.30;;;3.83;;
8572;SDS011;4324;42.012;24.872;2023-05-29T00:07:03;5.67;;;4.13;;
8572;SDS011;4324;42.012;24.872;2023-05-29T00:09:31;5.37;;;4.13;;
8572;SDS011;4324;42.012;24.872;2023-05-29T00:11:58;4.93;;;4.53;;
8572;SDS011;4324;42.012;24.872;2023-05-29T00:14:26;5.73;;;4.67;;
8572;SDS011;4324;42.012;24.872;2023-05-29T00:16:53;5.53;;;4.90;;
8572;SDS011;4324;42.012;24.872;2023-05-29T00:19:21;7.13;;;4.40;;
8572;SDS011;4324;42.012;24.872;2023-05-29T00:21:49;6.30;;;4.30;;
8572;SDS011;4324;42.012;24.872;2023-05-29T00:24:16;4.37;;;3.97;;
8572;SDS011;4324;42.012;24.872;2023-05-29T00:26:43;5.00;;;4.23;;
8572;SDS011;4324;42.012;24.872;2023-05-29T00:29:11;4.50;;;4.10;;
8572;SDS011;4324;42.012;24.872;2023-05-29T00:31:38;5.23;;;3.80;;
8572;SDS011;4324;42.012;24.872;2023-05-29T00:34:05;4.23;;;3.83;;
8572;SDS011;4324;42.012;24.872;2023-05-29T00:36:33;5.27;;;4.20;;
8572;SDS011;4324;42.012;24.872;2023-05-29T00:39:01;6.60;;;4.17;;
8572;SDS011;4324;42.012;24.872;2023-05-29T00:41:27;5.63;;;4.13;;
8572;SDS011;4324;42.012;24.872;2023-05-29T00:43:54;4.97;;;4.43;;
8572;SDS011;4324;42.012;24.872;2023-05-29T00:46:21;4.53;;;4.13;;
8572;SDS011;4324;42.012;24.872;2023-05-29T00:48:48;6.83;;;4.40;;
8572;SDS011;4324;42.012;24.872;2023-05-29T00:51:16;6.70;;;5.00;;
8572;SDS011;4324;42.012;24.872;2023-05-29T00:53:44;6.90;;;5.17;;
8572;SDS011;4324;42.012;24.872;2023-05-29T00:56:11;5.77;;;5.00;;
8572;SDS011;4324;42.012;24.872;2023-05-29T00:58:39;8.23;;;5.93;;
8572;SDS011;4324;42.012;24.872;2023-05-29T01:01:07;5.60;;;4.73;;
8572;SDS011;4324;42.012;24.872;2023-05-29T01:03:35;6.17;;;4.73;;
8572;SDS011;4324;42.012;24.872;2023-05-29T01:06:02;5.77;;;4.27;;
8572;SDS011;4324;42.012;24.872;2023-05-29T01:08:29;4.93;;;4.37;;
8572;SDS011;4324;42.012;24.872;2023-05-29T01:10:59;4.97;;;4.23;;
8572;SDS011;4324;42.012;24.872;2023-05-29T01:13:31;4.63;;;4.23;;
8572;SDS011;4324;42.012;24.872;2023-05-29T01:16:04;6.00;;;4.77;;
8572;SDS011;4324;42.012;24.872;2023-05-29T01:18:39;5.70;;;4.80;;
8572;SDS011;4324;42.012;24.872;2023-05-29T01:21:14;10.80;;;5.90;;
8572;SDS011;4324;42.012;24.872;2023-05-29T01:23:52;6.30;;;5.53;;
8572;SDS011;4324;42.012;24.872;2023-05-29T01:26:43;6.27;;;4.60;;
8572;SDS011;4324;42.012;24.872;2023-05-29T01:29:15;6.07;;;4.83;;
8572;SDS011;4324;42.012;24.872;2023-05-29T01:31:45;5.40;;;4.90;;
8572;SDS011;4324;42.012;24.872;2023-05-29T01:34:12;5.37;;;4.87;;
8572;SDS011;4324;42.012;24.872;2023-05-29T01:36:39;5.13;;;4.63;;
8572;SDS011;4324;42.012;24.872;2023-05-29T01:39:06;5.17;;;4.43;;
8572;SDS011;4324;42.012;24.872;2023-05-29T01:41:34;5.60;;;5.10;;
8572;SDS011;4324;42.012;24.872;2023-05-29T01:44:06;5.57;;;4.87;;
8572;SDS011;4324;42.012;24.872;2023-05-29T01:46:35;5.50;;;4.80;;
8572;SDS011;4324;42.012;24.872;2023-05-29T01:49:04;8.57;;;5.37;;
8572;SDS011;4324;42.012;24.872;2023-05-29T01:51:32;5.37;;;4.87;;
8572;SDS011;4324;42.012;24.872;2023-05-29T01:53:59;8.03;;;4.80;;
8572;SDS011;4324;42.012;24.872;2023-05-29T01:56:26;6.80;;;4.93;;
8572;SDS011;4324;42.012;24.872;2023-05-29T01:58:54;5.10;;;4.60;;
8572;SDS011;4324;42.012;24.872;2023-05-29T02:01:23;9.17;;;4.37;;
8572;SDS011;4324;42.012;24.872;2023-05-29T02:03:51;5.10;;;4.60;;
8572;SDS011;4324;42.012;24.872;2023-05-29T02:06:18;7.13;;;5.43;;
8572;SDS011;4324;42.012;24.872;2023-05-29T02:08:45;8.40;;;5.23;;
8572;SDS011;4324;42.012;24.872;2023-05-29T02:11:12;7.53;;;4.90;;
8572;SDS011;4324;42.012;24.872;2023-05-29T02:13:39;6.90;;;5.17;;
8572;SDS011;4324;42.012;24.872;2023-05-29T02:16:06;7.60;;;5.47;;
8572;SDS011;4324;42.012;24.872;2023-05-29T02:18:34;6.80;;;5.40;;
8572;SDS011;4324;42.012;24.872;2023-05-29T02:21:01;6.80;;;6.20;;
8572;SDS011;4324;42.012;24.872;2023-05-29T02:23:28;6.90;;;6.13;;
8572;SDS011;4324;42.012;24.872;2023-05-29T02:25:55;6.17;;;4.93;;
8572;SDS011;4324;42.012;24.872;2023-05-29T02:28:22;5.30;;;4.80;;
8572;SDS011;4324;42.012;24.872;2023-05-29T02:30:49;4.97;;;4.57;;
8572;SDS011;4324;42.012;24.872;2023-05-29T02:33:17;5.17;;;4.67;;
8572;SDS011;4324;42.012;24.872;2023-05-29T02:35:45;5.30;;;4.77;;
8572;SDS011;4324;42.012;24.872;2023-05-29T02:38:12;5.20;;;4.70;;
8572;SDS011;4324;42.012;24.872;2023-05-29T02:40:40;5.60;;;4.93;;
8572;SDS011;4324;42.012;24.872;2023-05-29T02:43:07;6.20;;;4.63;;
8572;SDS011;4324;42.012;24.872;2023-05-29T02:45:35;6.83;;;5.13;;
8572;SDS011;4324;42.012;24.872;2023-05-29T02:48:03;5.20;;;4.77;;
8572;SDS011;4324;42.012;24.872;2023-05-29T02:50:30;5.27;;;4.77;;
8572;SDS011;4324;42.012;24.872;2023-05-29T02:52:58;5.57;;;4.10;;
8572;SDS011;4324;42.012;24.872;2023-05-29T02:55:25;6.20;;;4.60;;
8572;SDS011;4324;42.012;24.872;2023-05-29T02:57:52;5.50;;;4.53;;
8572;SDS011;4324;42.012;24.872;2023-05-29T03:00:20;5.90;;;4.27;;
8572;SDS011;4324;42.012;24.872;2023-05-29T03:02:47;8.27;;;4.93;;
8572;SDS011;4324;42.012;24.872;2023-05-29T03:05:17;6.23;;;5.20;;
8572;SDS011;4324;42.012;24.872;2023-05-29T03:07:44;6.20;;;5.27;;
8572;SDS011;4324;42.012;24.872;2023-05-29T03:10:12;5.07;;;4.67;;
8572;SDS011;4324;42.012;24.872;2023-05-29T03:12:42;5.87;;;5.27;;
8572;SDS011;4324;42.012;24.872;2023-05-29T03:15:10;6.37;;;4.90;;
8572;SDS011;4324;42.012;24.872;2023-05-29T03:17:37;6.20;;;4.60;;
8572;SDS011;4324;42.012;24.872;2023-05-29T03:20:04;6.07;;;5.00;;
8572;SDS011;4324;42.012;24.872;2023-05-29T03:22:33;7.97;;;5.27;;
8572;SDS011;4324;42.012;24.872;2023-05-29T03:25:01;6.93;;;5.93;;
8572;SDS011;4324;42.012;24.872;2023-05-29T03:27:30;6.60;;;5.23;;
8572;SDS011;4324;42.012;24.872;2023-05-29T03:29:57;7.43;;;6.30;;
8572;SDS011;4324;42.012;24.872;2023-05-29T03:32:25;7.87;;;6.73;;
8572;SDS011;4324;42.012;24.872;2023-05-29T03:34:52;6.87;;;5.90;;
8572;SDS011;4324;42.012;24.872;2023-05-29T03:37:19;7.07;;;5.53;;
8572;SDS011;4324;42.012;24.872;2023-05-29T03:39:46;7.10;;;5.43;;
8572;SDS011;4324;42.012;24.872;2023-05-29T03:42:13;6.30;;;5.30;;
8572;SDS011;4324;42.012;24.872;2023-05-29T03:44:41;7.10;;;5.77;;
8572;SDS011;4324;42.012;24.872;2023-05-29T03:47:08;5.70;;;5.00;;
8572;SDS011;4324;42.012;24.872;2023-05-29T03:49:35;5.27;;;4.73;;
8572;SDS011;4324;42.012;24.872;2023-05-29T03:52:02;5.40;;;4.90;;
8572;SDS011;4324;42.012;24.872;2023-05-29T03:54:29;5.43;;;4.93;;
8572;SDS011;4324;42.012;24.872;2023-05-29T03:56:56;5.73;;;5.10;;
8572;SDS011;4324;42.012;24.872;2023-05-29T03:59:23;6.50;;;5.40;;
8572;SDS011;4324;42.012;24.872;2023-05-29T04:01:52;8.00;;;6.87;;
8572;SDS011;4324;42.012;24.872;2023-05-29T04:04:19;7.97;;;6.10;;
8572;SDS011;4324;42.012;24.872;2023-05-29T04:06:45;6.00;;;5.40;;
8572;SDS011;4324;42.012;24.872;2023-05-29T04:09:12;8.33;;;7.57;;
8572;SDS011;4324;42.012;24.872;2023-05-29T04:11:39;6.23;;;5.20;;
8572;SDS011;4324;42.012;24.872;2023-05-29T04:14:07;5.60;;;5.10;;
8572;SDS011;4324;42.012;24.872;2023-05-29T04:16:34;6.53;;;4.63;;
8572;SDS011;4324;42.012;24.872;2023-05-29T04:19:02;5.13;;;4.70;;
8572;SDS011;4324;42.012;24.872;2023-05-29T04:21:29;5.60;;;5.10;;
8572;SDS011;4324;42.012;24.872;2023-05-29T04:23:57;5.90;;;5.30;;
8572;SDS011;4324;42.012;24.872;2023-05-29T04:26:24;6.00;;;4.70;;
8572;SDS011;4324;42.012;24.872;2023-05-29T04:28:52;6.00;;;5.43;;
8572;SDS011;4324;42.012;24.872;2023-05-29T04:31:22;7.20;;;5.70;;
8572;SDS011;4324;42.012;24.872;2023-05-29T04:33:50;5.83;;;5.23;;
8572;SDS011;4324;42.012;24.872;2023-05-29T04:36:22;6.30;;;5.20;;
8572;SDS011;4324;42.012;24.872;2023-05-29T04:38:51;7.20;;;5.23;;
8572;SDS011;4324;42.012;24.872;2023-05-29T04:41:18;6.97;;;5.57;;
8572;SDS011;4324;42.012;24.872;2023-05-29T04:43:48;5.83;;;5.27;;
8572;SDS011;4324;42.012;24.872;2023-05-29T04:46:16;7.57;;;5.77;;
8572;SDS011;4324;42.012;24.872;2023-05-29T04:48:43;6.87;;;5.80;;
8572;SDS011;4324;42.012;24.872;2023-05-29T04:51:09;7.57;;;6.43;;
8572;SDS011;4324;42.012;24.872;2023-05-29T04:53:38;7.07;;;6.23;;
8572;SDS011;4324;42.012;24.872;2023-05-29T04:56:06;7.77;;;6.10;;
8572;SDS011;4324;42.012;24.872;2023-05-29T04:58:33;7.93;;;5.90;;
8572;SDS011;4324;42.012;24.872;2023-05-29T05:01:00;7.57;;;5.03;;
8572;SDS011;4324;42.012;24.872;2023-05-29T05:03:28;5.90;;;5.30;;
8572;SDS011;4324;42.012;24.872;2023-05-29T05:05:59;6.53;;;5.47;;
8572;SDS011;4324;42.012;24.872;2023-05-29T05:08:27;5.43;;;5.00;;
8572;SDS011;4324;42.012;24.872;2023-05-29T05:10:56;6.73;;;6.00;;
8572;SDS011;4324;42.012;24.872;2023-05-29T05:13:24;6.60;;;6.00;;
8572;SDS011;4324;42.012;24.872;2023-05-29T05:15:51;8.00;;;7.27;;
8572;SDS011;4324;42.012;24.872;2023-05-29T05:18:17;12.60;;;11.37;;
8572;SDS011;4324;42.012;24.872;2023-05-29T05:20:45;12.30;;;11.00;;
8572;SDS011;4324;42.012;24.872;2023-05-29T05:23:12;9.53;;;8.57;;
8572;SDS011;4324;42.012;24.872;2023-05-29T05:25:38;10.60;;;8.20;;
8572;SDS011;4324;42.012;24.872;2023-05-29T05:28:07;10.77;;;8.07;;
8572;SDS011;4324;42.012;24.872;2023-05-29T05:30:35;8.17;;;7.30;;
8572;SDS011;4324;42.012;24.872;2023-05-29T05:33:02;10.03;;;6.87;;
8572;SDS011;4324;42.012;24.872;2023-05-29T05:35:29;8.87;;;6.90;;
8572;SDS011;4324;42.012;24.872;2023-05-29T05:37:56;7.30;;;6.67;;
8572;SDS011;4324;42.012;24.872;2023-05-29T05:40:24;6.80;;;6.13;;
8572;SDS011;4324;42.012;24.872;2023-05-29T05:42:52;6.27;;;5.63;;
8572;SDS011;4324;42.012;24.872;2023-05-29T05:45:20;6.83;;;5.70;;
8572;SDS011;4324;42.012;24.872;2023-05-29T05:47:48;6.90;;;5.27;;
8572;SDS011;4324;42.012;24.872;2023-05-29T05:50:15;7.03;;;5.77;;
8572;SDS011;4324;42.012;24.872;2023-05-29T05:52:41;5.97;;;5.47;;
8572;SDS011;4324;42.012;24.872;2023-05-29T05:55:08;5.90;;;5.40;;
8572;SDS011;4324;42.012;24.872;2023-05-29T05:57:35;7.10;;;5.93;;
8572;SDS011;4324;42.012;24.872;2023-05-29T06:00:02;5.40;;;5.00;;
8572;SDS011;4324;42.012;24.872;2023-05-29T06:02:33;10.20;;;6.60;;
8572;SDS011;4324;42.012;24.872;2023-05-29T06:05:00;9.90;;;6.50;;
8572;SDS011;4324;42.012;24.872;2023-05-29T06:07:29;7.70;;;6.47;;
8572;SDS011;4324;42.012;24.872;2023-05-29T06:09:55;9.47;;;7.67;;
8572;SDS011;4324;42.012;24.872;2023-05-29T06:12:22;8.43;;;7.47;;
8572;SDS011;4324;42.012;24.872;2023-05-29T06:14:49;6.70;;;6.10;;
8572;SDS011;4324;42.012;24.872;2023-05-29T06:17:16;10.27;;;8.10;;
8572;SDS011;4324;42.012;24.872;2023-05-29T06:19:45;9.43;;;6.93;;
8572;SDS011;4324;42.012;24.872;2023-05-29T06:22:11;8.67;;;6.60;;
8572;SDS011;4324;42.012;24.872;2023-05-29T06:24:38;9.07;;;6.77;;
8572;SDS011;4324;42.012;24.872;2023-05-29T06:27:05;7.33;;;6.63;;
8572;SDS011;4324;42.012;24.872;2023-05-29T06:29:33;7.93;;;6.33;;
8572;SDS011;4324;42.012;24.872;2023-05-29T06:32:00;8.60;;;7.73;;
8572;SDS011;4324;42.012;24.872;2023-05-29T06:34:27;11.07;;;9.00;;
8572;SDS011;4324;42.012;24.872;2023-05-29T06:36:55;8.47;;;7.53;;
8572;SDS011;4324;42.012;24.872;2023-05-29T06:39:22;9.03;;;8.17;;
8572;SDS011;4324;42.012;24.872;2023-05-29T06:41:49;10.00;;;7.37;;
8572;SDS011;4324;42.012;24.872;2023-05-29T06:44:16;7.17;;;6.50;;
8572;SDS011;4324;42.012;24.872;2023-05-29T06:46:43;7.33;;;6.33;;
8572;SDS011;4324;42.012;24.872;2023-05-29T06:49:10;7.63;;;6.93;;
8572;SDS011;4324;42.012;24.872;2023-05-29T06:51:36;9.73;;;8.17;;
8572;SDS011;4324;42.012;24.872;2023-05-29T06:54:05;6.13;;;5.67;;
8572;SDS011;4324;42.012;24.872;2023-05-29T06:56:32;6.63;;;6.00;;
8572;SDS011;4324;42.012;24.872;2023-05-29T06:58:58;9.97;;;7.43;;
8572;SDS011;4324;42.012;24.872;2023-05-29T07:01:25;7.27;;;6.57;;
8572;SDS011;4324;42.012;24.872;2023-05-29T07:03:52;8.27;;;7.47;;
8572;SDS011;4324;42.012;24.872;2023-05-29T07:06:19;8.83;;;7.93;;
8572;SDS011;4324;42.012;24.872;2023-05-29T07:08:46;9.40;;;6.43;;
8572;SDS011;4324;42.012;24.872;2023-05-29T07:11:15;7.00;;;6.27;;
8572;SDS011;4324;42.012;24.872;2023-05-29T07:13:42;6.67;;;5.97;;
8572;SDS011;4324;42.012;24.872;2023-05-29T07:16:08;8.20;;;5.87;;
8572;SDS011;4324;42.012;24.872;2023-05-29T07:18:35;8.33;;;7.37;;
8572;SDS011;4324;42.012;24.872;2023-05-29T07:21:03;10.20;;;7.47;;
8572;SDS011;4324;42.012;24.872;2023-05-29T07:23:31;9.10;;;5.63;;
8572;SDS011;4324;42.012;24.872;2023-05-29T07:25:58;6.87;;;5.53;;
8572;SDS011;4324;42.012;24.872;2023-05-29T07:28:26;9.97;;;6.73;;
8572;SDS011;4324;42.012;24.872;2023-05-29T07:30:56;8.73;;;6.87;;
8572;SDS011;4324;42.012;24.872;2023-05-29T07:33:23;10.93;;;6.97;;
8572;SDS011;4324;42.012;24.872;2023-05-29T07:35:50;11.60;;;7.30;;
8572;SDS011;4324;42.012;24.872;2023-05-29T07:38:17;11.63;;;8.23;;
8572;SDS011;4324;42.012;24.872;2023-05-29T07:40:43;15.60;;;7.73;;
8572;SDS011;4324;42.012;24.872;2023-05-29T07:43:10;12.03;;;9.87;;
8572;SDS011;4324;42.012;24.872;2023-05-29T07:45:39;14.70;;;9.20;;
8572;SDS011;4324;42.012;24.872;2023-05-29T07:48:06;13.27;;;8.97;;
8572;SDS011;4324;42.012;24.872;2023-05-29T07:50:32;12.73;;;7.60;;
8572;SDS011;4324;42.012;24.872;2023-05-29T07:53:00;9.63;;;8.20;;
8572;SDS011;4324;42.012;24.872;2023-05-29T07:55:26;11.23;;;9.37;;
8572;SDS011;4324;42.012;24.872;2023-05-29T07:57:53;9.00;;;8.10;;
8572;SDS011;4324;42.012;24.872;2023-05-29T08:00:20;10.87;;;9.60;;
8572;SDS011;4324;42.012;24.872;2023-05-29T08:02:51;25.27;;;17.87;;
8572;SDS011;4324;42.012;24.872;2023-05-29T08:05:18;10.73;;;8.00;;
8572;SDS011;4324;42.012;24.872;2023-05-29T08:07:45;12.90;;;6.87;;
8572;SDS011;4324;42.012;24.872;2023-05-29T08:10:13;14.00;;;8.70;;
8572;SDS011;4324;42.012;24.872;2023-05-29T08:12:40;12.17;;;6.03;;
8572;SDS011;4324;42.012;24.872;2023-05-29T08:15:08;8.53;;;6.13;;
8572;SDS011;4324;42.012;24.872;2023-05-29T08:17:35;15.73;;;7.77;;
8572;SDS011;4324;42.012;24.872;2023-05-29T08:20:14;18.87;;;7.97;;
8572;SDS011;4324;42.012;24.872;2023-05-29T08:22:41;12.47;;;7.63;;
8572;SDS011;4324;42.012;24.872;2023-05-29T08:25:08;7.93;;;6.80;;
8572;SDS011;4324;42.012;24.872;2023-05-29T08:27:35;8.07;;;6.67;;
8572;SDS011;4324;42.012;24.872;2023-05-29T08:30:02;6.70;;;5.60;;
8572;SDS011;4324;42.012;24.872;2023-05-29T08:32:30;6.30;;;5.73;;
8572;SDS011;4324;42.012;24.872;2023-05-29T08:34:57;8.50;;;5.77;;
8572;SDS011;4324;42.012;24.872;2023-05-29T08:37:25;7.20;;;6.50;;
8572;SDS011;4324;42.012;24.872;2023-05-29T08:39:52;9.57;;;7.03;;
8572;SDS011;4324;42.012;24.872;2023-05-29T08:42:21;10.90;;;8.90;;
8572;SDS011;4324;42.012;24.872;2023-05-29T08:44:50;25.80;;;19.13;;
8572;SDS011;4324;42.012;24.872;2023-05-29T08:47:23;13.40;;;11.97;;
8572;SDS011;4324;42.012;24.872;2023-05-29T08:49:53;8.33;;;6.50;;
8572;SDS011;4324;42.012;24.872;2023-05-29T08:52:22;7.53;;;6.10;;
8572;SDS011;4324;42.012;24.872;2023-05-29T08:54:51;8.93;;;7.20;;
8572;SDS011;4324;42.012;24.872;2023-05-29T08:57:19;8.53;;;7.63;;
8572;SDS011;4324;42.012;24.872;2023-05-29T08:59:46;9.70;;;8.73;;
8572;SDS011;4324;42.012;24.872;2023-05-29T09:02:17;8.87;;;7.90;;
8572;SDS011;4324;42.012;24.872;2023-05-29T09:04:45;10.20;;;7.87;;
8572;SDS011;4324;42.012;24.872;2023-05-29T09:07:14;8.43;;;7.27;;
8572;SDS011;4324;42.012;24.872;2023-05-29T09:09:41;10.47;;;7.93;;
8572;SDS011;4324;42.012;24.872;2023-05-29T09:12:10;11.77;;;8.83;;
8572;SDS011;4324;42.012;24.872;2023-05-29T09:14:38;7.17;;;6.47;;
8572;SDS011;4324;42.012;24.872;2023-05-29T09:17:07;7.17;;;6.47;;
8572;SDS011;4324;42.012;24.872;2023-05-29T09:19:34;6.43;;;5.90;;
8572;SDS011;4324;42.012;24.872;2023-05-29T09:22:03;6.23;;;5.50;;
8572;SDS011;4324;42.012;24.872;2023-05-29T09:24:32;6.47;;;5.53;;
8572;SDS011;4324;42.012;24.872;2023-05-29T09:27:00;8.53;;;6.07;;
8572;SDS011;4324;42.012;24.872;2023-05-29T09:29:31;6.53;;;5.90;;
8572;SDS011;4324;42.012;24.872;2023-05-29T09:32:01;8.47;;;5.10;;
8572;SDS011;4324;42.012;24.872;2023-05-29T09:34:30;7.40;;;4.77;;
8572;SDS011;4324;42.012;24.872;2023-05-29T09:37:00;5.80;;;5.30;;
8572;SDS011;4324;42.012;24.872;2023-05-29T09:39:33;8.03;;;7.17;;
8572;SDS011;4324;42.012;24.872;2023-05-29T09:42:01;5.10;;;4.70;;
8572;SDS011;4324;42.012;24.872;2023-05-29T09:44:32;5.40;;;5.00;;
8572;SDS011;4324;42.012;24.872;2023-05-29T09:46:59;5.63;;;5.00;;
8572;SDS011;4324;42.012;24.872;2023-05-29T09:49:27;5.67;;;5.20;;
8572;SDS011;4324;42.012;24.872;2023-05-29T09:51:53;5.97;;;5.50;;
8572;SDS011;4324;42.012;24.872;2023-05-29T09:54:21;8.00;;;6.13;;
8572;SDS011;4324;42.012;24.872;2023-05-29T09:56:48;5.77;;;5.27;;
8572;SDS011;4324;42.012;24.872;2023-05-29T09:59:16;6.23;;;5.73;;
8572;SDS011;4324;42.012;24.872;2023-05-29T10:01:45;5.40;;;4.90;;
8572;SDS011;4324;42.012;24.872;2023-05-29T10:04:11;5.40;;;4.80;;
8572;SDS011;4324;42.012;24.872;2023-05-29T10:06:41;5.70;;;5.20;;
8572;SDS011;4324;42.012;24.872;2023-05-29T10:09:11;5.80;;;5.17;;
8572;SDS011;4324;42.012;24.872;2023-05-29T10:11:40;5.43;;;4.93;;
8572;SDS011;4324;42.012;24.872;2023-05-29T10:14:09;4.90;;;4.50;;
8572;SDS011;4324;42.012;24.872;2023-05-29T10:16:46;5.83;;;5.00;;
8572;SDS011;4324;42.012;24.872;2023-05-29T10:19:16;4.50;;;4.20;;
8572;SDS011;4324;42.012;24.872;2023-05-29T10:21:47;5.90;;;5.30;;
8572;SDS011;4324;42.012;24.872;2023-05-29T10:24:15;5.60;;;5.10;;
8572;SDS011;4324;42.012;24.872;2023-05-29T10:26:46;4.90;;;4.50;;
8572;SDS011;4324;42.012;24.872;2023-05-29T10:29:16;4.87;;;4.50;;
8572;SDS011;4324;42.012;24.872;2023-05-29T10:31:52;5.10;;;4.70;;
8572;SDS011;4324;42.012;24.872;2023-05-29T10:34:33;4.77;;;4.47;;
8572;SDS011;4324;42.012;24.872;2023-05-29T10:37:08;6.10;;;5.60;;
8572;SDS011;4324;42.012;24.872;2023-05-29T10:39:44;5.17;;;4.77;;
8572;SDS011;4324;42.012;24.872;2023-05-29T10:45:07;6.10;;;4.20;;
8572;SDS011;4324;42.012;24.872;2023-05-29T10:47:36;5.17;;;4.63;;
8572;SDS011;4324;42.012;24.872;2023-05-29T10:50:03;4.80;;;4.50;;
8572;SDS011;4324;42.012;24.872;2023-05-29T10:52:30;4.67;;;4.37;;
8572;SDS011;4324;42.012;24.872;2023-05-29T10:54:58;4.90;;;4.50;;
8572;SDS011;4324;42.012;24.872;2023-05-29T10:57:25;4.77;;;4.47;;
8572;SDS011;4324;42.012;24.872;2023-05-29T10:59:59;7.03;;;4.67;;
8572;SDS011;4324;42.012;24.872;2023-05-29T11:02:32;4.67;;;4.23;;
8572;SDS011;4324;42.012;24.872;2023-05-29T11:05:07;5.13;;;4.60;;
8572;SDS011;4324;42.012;24.872;2023-05-29T11:07:51;4.77;;;4.47;;
8572;SDS011;4324;42.012;24.872;2023-05-29T11:10:42;5.87;;;5.37;;
8572;SDS011;4324;42.012;24.872;2023-05-29T11:13:10;5.90;;;4.67;;
8572;SDS011;4324;42.012;24.872;2023-05-29T11:15:55;4.80;;;4.40;;
8572;SDS011;4324;42.012;24.872;2023-05-29T11:18:31;5.10;;;4.70;;
8572;SDS011;4324;42.012;24.872;2023-05-29T11:21:00;4.70;;;4.20;;
8572;SDS011;4324;42.012;24.872;2023-05-29T11:23:35;5.07;;;4.40;;
8572;SDS011;4324;42.012;24.872;2023-05-29T11:26:08;4.67;;;4.20;;
8572;SDS011;4324;42.012;24.872;2023-05-29T11:28:35;16.27;;;13.37;;
8572;SDS011;4324;42.012;24.872;2023-05-29T11:31:06;5.23;;;4.67;;
8572;SDS011;4324;42.012;24.872;2023-05-29T11:33:39;4.73;;;4.07;;
8572;SDS011;4324;42.012;24.872;2023-05-29T11:36:08;7.70;;;4.63;;
8572;SDS011;4324;42.012;24.872;2023-05-29T11:38:36;4.23;;;3.80;;
8572;SDS011;4324;42.012;24.872;2023-05-29T11:41:03;4.50;;;4.10;;
8572;SDS011;4324;42.012;24.872;2023-05-29T11:43:30;4.53;;;4.13;;
8572;SDS011;4324;42.012;24.872;2023-05-29T11:45:57;4.63;;;4.20;;
8572;SDS011;4324;42.012;24.872;2023-05-29T11:48:24;5.97;;;4.60;;
8572;SDS011;4324;42.012;24.872;2023-05-29T11:50:52;4.17;;;3.80;;
8572;SDS011;4324;42.012;24.872;2023-05-29T11:53:20;4.50;;;4.13;;
8572;SDS011;4324;42.012;24.872;2023-05-29T11:55:48;6.20;;;4.00;;
8572;SDS011;4324;42.012;24.872;2023-05-29T11:58:15;4.43;;;4.03;;
8572;SDS011;4324;42.012;24.872;2023-05-29T12:00:42;4.73;;;4.33;;
8572;SDS011;4324;42.012;24.872;2023-05-29T12:03:12;4.47;;;4.07;;
8572;SDS011;4324;42.012;24.872;2023-05-29T12:05:45;4.43;;;4.13;;
8572;SDS011;4324;42.012;24.872;2023-05-29T12:08:13;4.87;;;4.27;;
8572;SDS011;4324;42.012;24.872;2023-05-29T12:10:47;4.67;;;4.13;;
8572;SDS011;4324;42.012;24.872;2023-05-29T12:13:14;5.40;;;5.00;;
8572;SDS011;4324;42.012;24.872;2023-05-29T12:15:42;4.00;;;3.60;;
8572;SDS011;4324;42.012;24.872;2023-05-29T12:18:09;7.17;;;4.93;;
8572;SDS011;4324;42.012;24.872;2023-05-29T12:20:36;4.70;;;4.10;;
8572;SDS011;4324;42.012;24.872;2023-05-29T12:23:04;4.87;;;3.83;;
8572;SDS011;4324;42.012;24.872;2023-05-29T12:25:33;4.83;;;4.03;;
8572;SDS011;4324;42.012;24.872;2023-05-29T12:28:03;6.80;;;4.40;;
8572;SDS011;4324;42.012;24.872;2023-05-29T12:30:36;6.07;;;4.40;;
8572;SDS011;4324;42.012;24.872;2023-05-29T12:33:04;4.20;;;3.80;;
8572;SDS011;4324;42.012;24.872;2023-05-29T12:35:31;5.60;;;4.20;;
8572;SDS011;4324;42.012;24.872;2023-05-29T12:37:58;3.30;;;3.00;;
8572;SDS011;4324;42.012;24.872;2023-05-29T12:40:27;4.53;;;4.13;;
8572;SDS011;4324;42.012;24.872;2023-05-29T12:42:55;4.30;;;4.00;;
8572;SDS011;4324;42.012;24.872;2023-05-29T12:45:25;4.83;;;4.43;;
8572;SDS011;4324;42.012;24.872;2023-05-29T12:47:53;4.80;;;4.40;;
8572;SDS011;4324;42.012;24.872;2023-05-29T12:50:21;4.77;;;4.30;;
8572;SDS011;4324;42.012;24.872;2023-05-29T12:52:53;4.17;;;3.87;;
8572;SDS011;4324;42.012;24.872;2023-05-29T12:55:24;7.37;;;4.43;;
8572;SDS011;4324;42.012;24.872;2023-05-29T12:57:51;5.47;;;4.97;;
8572;SDS011;4324;42.012;24.872;2023-05-29T13:00:19;4.97;;;4.10;;
8572;SDS011;4324;42.012;24.872;2023-05-29T13:02:48;4.80;;;4.20;;
8572;SDS011;4324;42.012;24.872;2023-05-29T13:05:15;7.90;;;5.23;;
8572;SDS011;4324;42.012;24.872;2023-05-29T13:07:44;7.67;;;6.10;;
8572;SDS011;4324;42.012;24.872;2023-05-29T13:10:12;7.80;;;7.10;;
8572;SDS011;4324;42.012;24.872;2023-05-29T13:12:40;6.43;;;5.83;;
8572;SDS011;4324;42.012;24.872;2023-05-29T13:15:07;8.50;;;6.83;;
8572;SDS011;4324;42.012;24.872;2023-05-29T13:17:36;7.43;;;6.80;;
8572;SDS011;4324;42.012;24.872;2023-05-29T13:20:08;9.10;;;7.73;;
8572;SDS011;4324;42.012;24.872;2023-05-29T13:22:36;8.40;;;7.70;;
8572;SDS011;4324;42.012;24.872;2023-05-29T13:25:03;8.43;;;7.73;;
8572;SDS011;4324;42.012;24.872;2023-05-29T13:27:32;12.10;;;11.10;;
8572;SDS011;4324;42.012;24.872;2023-05-29T13:30:00;10.97;;;10.07;;
8572;SDS011;4324;42.012;24.872;2023-05-29T13:32:27;9.00;;;8.07;;
8572;SDS011;4324;42.012;24.872;2023-05-29T13:34:54;7.93;;;7.20;;
8572;SDS011;4324;42.012;24.872;2023-05-29T13:37:23;9.37;;;8.47;;
8572;SDS011;4324;42.012;24.872;2023-05-29T13:39:50;9.07;;;7.50;;
8572;SDS011;4324;42.012;24.872;2023-05-29T13:42:17;8.50;;;7.20;;
8572;SDS011;4324;42.012;24.872;2023-05-29T13:44:45;6.67;;;6.07;;
8572;SDS011;4324;42.012;24.872;2023-05-29T13:47:12;7.67;;;6.67;;
8572;SDS011;4324;42.012;24.872;2023-05-29T13:49:40;7.23;;;6.53;;
8572;SDS011;4324;42.012;24.872;2023-05-29T13:52:07;9.23;;;7.20;;
8572;SDS011;4324;42.012;24.872;2023-05-29T13:54:35;5.83;;;5.33;;
8572;SDS011;4324;42.012;24.872;2023-05-29T13:57:02;7.67;;;5.63;;
8572;SDS011;4324;42.012;24.872;2023-05-29T13:59:30;7.07;;;5.50;;
8572;SDS011;4324;42.012;24.872;2023-05-29T14:01:57;5.87;;;4.30;;
8572;SDS011;4324;42.012;24.872;2023-05-29T14:04:25;8.00;;;5.93;;
8572;SDS011;4324;42.012;24.872;2023-05-29T14:06:52;7.70;;;5.03;;
8572;SDS011;4324;42.012;24.872;2023-05-29T14:09:20;7.00;;;5.73;;
8572;SDS011;4324;42.012;24.872;2023-05-29T14:11:53;5.80;;;4.83;;
8572;SDS011;4324;42.012;24.872;2023-05-29T14:14:21;6.27;;;4.77;;
8572;SDS011;4324;42.012;24.872;2023-05-29T14:16:49;6.23;;;4.87;;
8572;SDS011;4324;42.012;24.872;2023-05-29T14:19:17;7.50;;;4.63;;
8572;SDS011;4324;42.012;24.872;2023-05-29T14:21:44;6.13;;;4.27;;
8572;SDS011;4324;42.012;24.872;2023-05-29T14:24:11;5.53;;;4.40;;
8572;SDS011;4324;42.012;24.872;2023-05-29T14:26:38;7.17;;;4.33;;
8572;SDS011;4324;42.012;24.872;2023-05-29T14:29:06;5.27;;;4.43;;
8572;SDS011;4324;42.012;24.872;2023-05-29T14:31:33;6.67;;;4.37;;
8572;SDS011;4324;42.012;24.872;2023-05-29T14:34:00;5.20;;;4.23;;
8572;SDS011;4324;42.012;24.872;2023-05-29T14:36:27;4.77;;;4.33;;
8572;SDS011;4324;42.012;24.872;2023-05-29T14:38:54;4.87;;;4.40;;
8572;SDS011;4324;42.012;24.872;2023-05-29T14:41:24;5.77;;;5.00;;
8572;SDS011;4324;42.012;24.872;2023-05-29T14:43:51;6.80;;;4.83;;
8572;SDS011;4324;42.012;24.872;2023-05-29T14:46:20;6.40;;;5.80;;
8572;SDS011;4324;42.012;24.872;2023-05-29T14:48:46;7.00;;;6.07;;
8572;SDS011;4324;42.012;24.872;2023-05-29T14:51:14;7.17;;;5.40;;
8572;SDS011;4324;42.012;24.872;2023-05-29T14:53:42;6.77;;;6.17;;
8572;SDS011;4324;42.012;24.872;2023-05-29T14:56:09;6.33;;;5.70;;
8572;SDS011;4324;42.012;24.872;2023-05-29T14:58:36;8.83;;;6.03;;
8572;SDS011;4324;42.012;24.872;2023-05-29T15:01:03;9.87;;;6.33;;
8572;SDS011;4324;42.012;24.872;2023-05-29T15:03:32;6.90;;;6.30;;
8572;SDS011;4324;42.012;24.872;2023-05-29T15:06:00;7.73;;;6.13;;
8572;SDS011;4324;42.012;24.872;2023-05-29T15:08:27;10.30;;;7.03;;
8572;SDS011;4324;42.012;24.872;2023-05-29T15:10:59;9.17;;;6.60;;